createdAt,value
2023-05-02T00:02:06.821Z,77.91
2023-05-02T00:04:34.778Z,78.75
2023-05-02T00:07:02.794Z,78.31
2023-05-02T00:09:30.754Z,78.80
2023-05-02T00:11:59.855Z,79.70
2023-05-02T00:14:27.548Z,79.72
2023-05-02T00:16:55.747Z,80.06
2023-05-02T00:19:23.522Z,80.68
2023-05-02T00:21:51.362Z,80.75
2023-05-02T00:24:19.455Z,80.41
2023-05-02T00:26:47.556Z,79.95
2023-05-02T00:29:16.641Z,79.29
2023-05-02T00:31:44.378Z,78.83
2023-05-02T00:34:12.103Z,79.52
2023-05-02T00:36:40.084Z,79.32
2023-05-02T00:39:07.747Z,79.83
2023-05-02T00:41:35.662Z,79.81
2023-05-02T00:44:03.642Z,80.10
2023-05-02T00:46:32.723Z,80.46
2023-05-02T00:49:01.560Z,80.38
2023-05-02T00:51:29.283Z,80.56
2023-05-02T00:53:57.782Z,81.52
2023-05-02T00:56:25.511Z,82.28
2023-05-02T00:58:53.628Z,82.74
2023-05-02T01:01:38.155Z,82.89
2023-05-02T01:04:21.378Z,83.05
2023-05-02T01:07:01.103Z,83.75
2023-05-02T01:09:40.994Z,82.99
2023-05-02T01:12:17.405Z,82.55
2023-05-02T01:14:51.931Z,82.55
2023-05-02T01:17:24.103Z,82.84
2023-05-02T01:19:56.076Z,83.26
2023-05-02T01:22:26.696Z,83.46
2023-05-02T01:25:04.638Z,82.99
2023-05-02T01:27:38.385Z,83.16
2023-05-02T01:30:09.194Z,83.31
2023-05-02T01:32:40.801Z,83.58
2023-05-02T01:35:10.185Z,83.93
2023-05-02T01:37:39.146Z,84.25
2023-05-02T01:40:09.726Z,84.14
2023-05-02T01:42:38.322Z,84.68
2023-05-02T01:45:09.769Z,85.13
2023-05-02T01:47:39.104Z,84.60
2023-05-02T01:50:10.370Z,84.94
2023-05-02T01:52:38.416Z,84.65
2023-05-02T01:55:10.381Z,84.65
2023-05-02T01:57:41.134Z,85.16
2023-05-02T02:00:12.039Z,85.25
2023-05-02T02:02:42.032Z,86.01
2023-05-02T02:05:11.639Z,86.25
2023-05-02T02:07:39.618Z,86.31
2023-05-02T02:10:08.450Z,86.35
2023-05-02T02:12:41.352Z,86.26
2023-05-02T02:15:18.460Z,85.84
2023-05-02T02:17:50.788Z,86.66
2023-05-02T02:20:20.301Z,86.74
2023-05-02T02:22:49.449Z,87.44
2023-05-02T02:25:18.672Z,87.52
2023-05-02T02:27:46.342Z,87.62
2023-05-02T02:30:16.496Z,87.83
2023-05-02T02:32:44.355Z,87.68
2023-05-02T02:35:12.623Z,88.38
2023-05-02T02:37:46.856Z,88.31
2023-05-02T02:40:23.042Z,87.77
2023-05-02T02:42:58.767Z,88.45
2023-05-02T02:45:36.868Z,88.13
2023-05-02T02:48:18.303Z,87.94
2023-05-02T02:50:56.081Z,87.79
2023-05-02T02:53:28.896Z,88.08
2023-05-02T02:56:01.548Z,87.58
2023-05-02T02:58:37.910Z,87.17
2023-05-02T03:01:12.804Z,87.59
2023-05-02T03:03:43.439Z,88.06
2023-05-02T03:06:11.180Z,87.64
2023-05-02T03:08:42.124Z,88.23
2023-05-02T03:11:09.966Z,88.14
2023-05-02T03:13:38.407Z,87.84
2023-05-02T03:16:37.094Z,87.61
2023-05-02T03:19:05.140Z,87.50
2023-05-02T03:21:32.861Z,87.90
2023-05-02T03:24:01.576Z,88.14
2023-05-02T03:26:29.950Z,89.16
2023-05-02T03:28:58.087Z,88.87
2023-05-02T03:31:26.805Z,88.68
2023-05-02T03:33:56.073Z,88.93
2023-05-02T03:36:23.685Z,89.30
2023-05-02T03:38:51.752Z,89.03
2023-05-02T03:41:20.894Z,88.46
2023-05-02T03:43:48.655Z,88.26
2023-05-02T03:46:16.447Z,88.31
2023-05-02T03:48:46.418Z,88.02
2023-05-02T03:51:15.616Z,88.05
2023-05-02T03:53:43.507Z,87.91
2023-05-02T03:56:11.121Z,87.03
2023-05-02T03:58:38.810Z,87.36
2023-05-02T04:01:15.496Z,87.10
2023-05-02T04:03:43.573Z,86.53
2023-05-02T04:06:13.096Z,86.12
2023-05-02T04:08:42.516Z,86.09
2023-05-02T04:11:10.148Z,85.90
2023-05-02T04:13:37.808Z,86.09
2023-05-02T04:16:06.078Z,85.77
2023-05-02T04:18:33.967Z,85.88
2023-05-02T04:21:01.669Z,85.82
2023-05-02T04:23:29.429Z,85.29
2023-05-02T04:25:58.872Z,85.32
2023-05-02T04:28:26.547Z,84.78
2023-05-02T04:30:54.472Z,84.80
2023-05-02T04:33:22.165Z,85.06
2023-05-02T04:35:50.218Z,84.64
2023-05-02T04:38:18.099Z,84.61
2023-05-02T04:40:45.932Z,84.28
2023-05-02T04:43:15.012Z,84.16
2023-05-02T04:45:42.704Z,84.00
2023-05-02T04:48:10.511Z,83.79
2023-05-02T04:50:38.193Z,83.43
2023-05-02T04:53:06.376Z,83.23
2023-05-02T04:55:34.103Z,82.67
2023-05-02T04:58:01.729Z,83.46
2023-05-02T05:00:30.864Z,82.10
2023-05-02T05:03:00.137Z,81.92
2023-05-02T05:05:29.389Z,81.27
2023-05-02T05:07:57.320Z,81.31
2023-05-02T05:10:25.138Z,80.79
2023-05-02T05:12:53.398Z,80.78
2023-05-02T05:15:22.470Z,80.11
2023-05-02T05:17:51.566Z,80.35
2023-05-02T05:20:19.909Z,80.05
2023-05-02T05:22:47.994Z,80.42
2023-05-02T05:25:16.002Z,80.48
2023-05-02T05:27:43.670Z,80.12
2023-05-02T05:30:12.292Z,80.29
2023-05-02T05:32:40.086Z,80.21
2023-05-02T05:35:10.055Z,80.35
2023-05-02T05:37:39.458Z,80.46
2023-05-02T05:40:08.651Z,80.18
2023-05-02T05:43:00.497Z,80.21
2023-05-02T05:45:28.181Z,79.61
2023-05-02T05:47:55.986Z,78.88
2023-05-02T05:50:25.214Z,78.61
2023-05-02T05:52:52.924Z,76.83
2023-05-02T05:55:20.562Z,76.63
2023-05-02T05:57:48.181Z,77.15
2023-05-02T06:00:17.035Z,75.97
2023-05-02T06:02:44.755Z,75.59
2023-05-02T06:05:12.635Z,76.67
2023-05-02T06:07:41.719Z,75.13
2023-05-02T06:10:10.886Z,74.39
2023-05-02T06:12:38.655Z,74.11
2023-05-02T06:15:07.263Z,74.72
2023-05-02T06:17:35.092Z,74.62
2023-05-02T06:20:03.030Z,72.73
2023-05-02T06:22:30.979Z,72.48
2023-05-02T06:25:00.878Z,71.74
2023-05-02T06:27:28.851Z,70.83
2023-05-02T06:29:56.700Z,70.85
2023-05-02T06:32:24.443Z,69.41
2023-05-02T06:34:52.253Z,70.76
2023-05-02T06:37:20.020Z,70.55
2023-05-02T06:39:47.730Z,69.65
2023-05-02T06:42:17.105Z,67.62
2023-05-02T06:44:44.774Z,68.00
2023-05-02T06:47:12.470Z,68.65
2023-05-02T06:49:40.341Z,68.37
2023-05-02T06:52:08.176Z,68.79
2023-05-02T06:54:35.964Z,68.41
2023-05-02T06:57:04.155Z,68.54
2023-05-02T06:59:33.358Z,69.10
2023-05-02T07:02:03.051Z,70.17
2023-05-02T07:04:32.915Z,68.31
2023-05-02T07:07:01.139Z,67.61
2023-05-02T07:09:29.044Z,68.27
2023-05-02T07:11:57.083Z,68.57
2023-05-02T07:14:24.880Z,69.26
2023-05-02T07:16:54.923Z,69.21
2023-05-02T07:19:22.760Z,67.94
2023-05-02T07:21:50.495Z,66.80
2023-05-02T07:24:18.385Z,67.81
2023-05-02T07:26:46.067Z,67.92
2023-05-02T07:29:13.782Z,66.42
2023-05-02T07:31:41.526Z,67.18
2023-05-02T07:34:10.618Z,67.41
2023-05-02T07:36:38.266Z,67.30
2023-05-02T07:39:06.196Z,66.38
2023-05-02T07:41:34.144Z,65.69
2023-05-02T07:44:01.818Z,65.71
2023-05-02T07:46:29.506Z,66.11
2023-05-02T07:48:57.257Z,66.65
2023-05-02T07:51:26.852Z,65.53
2023-05-02T07:53:58.307Z,64.49
2023-05-02T07:56:26.076Z,65.44
2023-05-02T07:58:54.169Z,65.78
2023-05-02T08:01:21.977Z,65.60
2023-05-02T08:03:50.037Z,66.13
2023-05-02T08:06:18.153Z,63.90
2023-05-02T08:08:47.575Z,62.12
2023-05-02T08:11:15.696Z,61.39
2023-05-02T08:13:43.509Z,61.71
2023-05-02T08:16:11.364Z,60.42
2023-05-02T08:18:39.172Z,58.88
2023-05-02T08:21:07.100Z,59.53
2023-05-02T08:23:35.036Z,59.12
2023-05-02T08:26:04.530Z,59.75
2023-05-02T08:28:32.295Z,59.83
2023-05-02T08:31:00.006Z,59.37
2023-05-02T08:33:27.856Z,58.81
2023-05-02T08:35:55.694Z,61.10
2023-05-02T08:38:23.601Z,60.01
2023-05-02T08:40:51.468Z,61.03
2023-05-02T08:43:21.195Z,59.48
2023-05-02T08:45:51.179Z,60.64
2023-05-02T08:48:20.321Z,60.75
2023-05-02T08:50:49.600Z,60.16
2023-05-02T08:53:19.052Z,60.48
2023-05-02T08:55:47.702Z,60.42
2023-05-02T08:58:16.302Z,60.49
2023-05-02T09:00:50.935Z,61.41
2023-05-02T09:03:30.281Z,60.58
2023-05-02T09:06:06.319Z,61.22
2023-05-02T09:08:34.759Z,61.46
2023-05-02T09:11:03.852Z,59.41
2023-05-02T09:13:33.168Z,59.88
2023-05-02T09:16:03.426Z,60.80
2023-05-02T09:18:33.965Z,59.74
2023-05-02T09:21:02.965Z,58.28
2023-05-02T09:23:35.329Z,59.04
2023-05-02T09:26:03.372Z,58.80
2023-05-02T09:28:42.168Z,58.75
2023-05-02T09:31:16.830Z,58.58
2023-05-02T09:33:46.841Z,58.33
2023-05-02T09:36:16.148Z,56.82
2023-05-02T09:38:45.048Z,56.56
2023-05-02T09:41:12.863Z,56.73
2023-05-02T09:43:41.348Z,56.82
2023-05-02T09:46:11.916Z,56.84
2023-05-02T09:48:56.876Z,55.32
2023-05-02T09:51:25.787Z,54.38
2023-05-02T09:53:54.103Z,53.02
2023-05-02T09:56:23.357Z,51.63
2023-05-02T09:58:51.790Z,51.73
2023-05-02T10:01:21.586Z,53.04
2023-05-02T10:03:50.232Z,52.27
2023-05-02T10:06:18.352Z,52.40
2023-05-02T10:08:47.621Z,52.53
2023-05-02T10:11:15.772Z,52.50
2023-05-02T10:13:44.943Z,51.73
2023-05-02T10:16:14.199Z,53.35
2023-05-02T10:18:49.297Z,52.57
2023-05-02T10:21:19.126Z,53.17
2023-05-02T10:23:47.798Z,53.43
2023-05-02T10:26:17.541Z,52.91
2023-05-02T10:28:45.794Z,53.71
2023-05-02T10:31:14.942Z,53.26
2023-05-02T10:33:44.222Z,51.97
2023-05-02T10:36:14.059Z,51.61
2023-05-02T10:38:43.184Z,51.01
2023-05-02T10:41:15.161Z,51.63
2023-05-02T10:43:48.989Z,48.48
2023-05-02T10:46:33.183Z,48.04
2023-05-02T10:49:07.271Z,46.25
2023-05-02T10:51:36.441Z,46.29
2023-05-02T10:54:23.439Z,45.18
2023-05-02T10:57:06.086Z,47.72
2023-05-02T10:59:36.927Z,45.94
2023-05-02T11:02:07.066Z,45.52
2023-05-02T11:05:10.322Z,43.24
2023-05-02T11:07:39.025Z,40.68
2023-05-02T11:10:27.437Z,40.88
2023-05-02T11:12:56.632Z,41.33
2023-05-02T11:15:57.991Z,44.78
2023-05-02T11:18:25.740Z,43.96
2023-05-02T11:21:29.952Z,43.05
2023-05-02T11:24:35.045Z,44.83
2023-05-02T11:27:38.521Z,43.58
2023-05-02T11:30:07.653Z,46.77
2023-05-02T11:33:18.137Z,46.41
2023-05-02T11:35:47.544Z,46.39
2023-05-02T11:38:18.859Z,45.03
2023-05-02T11:41:00.230Z,46.93
2023-05-02T11:43:31.753Z,46.00
2023-05-02T11:46:02.204Z,45.64
2023-05-02T11:48:31.633Z,44.97
2023-05-02T11:51:03.419Z,44.89
2023-05-02T11:53:33.128Z,44.41
2023-05-02T11:56:02.191Z,43.46
2023-05-02T11:58:32.912Z,43.43
2023-05-02T12:01:12.381Z,41.78
2023-05-02T12:03:40.732Z,42.95
2023-05-02T12:06:13.079Z,42.95
2023-05-02T12:08:43.836Z,43.94
2023-05-02T12:11:14.618Z,42.62
2023-05-02T12:13:47.083Z,43.17
2023-05-02T12:16:15.363Z,47.25
2023-05-02T12:18:44.055Z,48.84
2023-05-02T12:21:11.913Z,49.67
2023-05-02T12:23:42.925Z,50.33
2023-05-02T12:26:22.153Z,48.30
2023-05-02T12:28:51.380Z,46.03
2023-05-02T12:31:19.711Z,45.70
2023-05-02T12:33:50.182Z,46.95
2023-05-02T12:36:18.495Z,47.82
2023-05-02T12:38:52.994Z,46.47
2023-05-02T12:41:31.254Z,48.01
2023-05-02T12:44:01.024Z,47.38
2023-05-02T12:46:29.340Z,46.83
2023-05-02T12:49:04.002Z,45.30
2023-05-02T12:51:32.911Z,44.98
2023-05-02T12:54:02.327Z,44.13
2023-05-02T12:56:33.080Z,42.36
2023-05-02T12:59:05.683Z,42.74
2023-05-02T13:01:35.211Z,41.03
2023-05-02T13:04:03.736Z,39.94
2023-05-02T13:06:32.016Z,41.42
2023-05-02T13:09:00.108Z,39.33
2023-05-02T13:11:29.438Z,38.67
2023-05-02T13:13:57.183Z,37.14
2023-05-02T13:16:25.972Z,38.35
2023-05-02T13:18:54.217Z,39.57
2023-05-02T13:21:22.018Z,40.07
2023-05-02T13:23:50.529Z,41.44
2023-05-02T13:26:18.475Z,40.31
2023-05-02T13:28:47.579Z,39.24
2023-05-02T13:31:15.263Z,38.58
2023-05-02T13:33:43.114Z,38.81
2023-05-02T13:36:10.950Z,41.68
2023-05-02T13:38:38.786Z,42.22
2023-05-02T13:41:06.758Z,41.29
2023-05-02T13:43:34.631Z,42.21
2023-05-02T13:46:03.757Z,42.94
2023-05-02T13:48:31.492Z,43.28
2023-05-02T13:50:59.065Z,41.88
2023-05-02T13:53:26.712Z,41.20
2023-05-02T13:55:54.404Z,40.63
2023-05-02T13:58:22.210Z,40.68
2023-05-02T14:00:49.823Z,41.52
2023-05-02T14:03:20.806Z,42.20
2023-05-02T14:05:48.475Z,44.16
2023-05-02T14:08:18.373Z,42.40
2023-05-02T14:10:46.239Z,43.61
2023-05-02T14:13:13.812Z,43.83
2023-05-02T14:15:41.515Z,43.95
2023-05-02T14:18:09.417Z,44.62
2023-05-02T14:20:38.437Z,44.25
2023-05-02T14:23:07.585Z,43.66
2023-05-02T14:25:35.458Z,44.01
2023-05-02T14:28:03.537Z,43.59
2023-05-02T14:30:32.121Z,45.38
2023-05-02T14:32:59.828Z,43.67
2023-05-02T14:35:27.415Z,43.03
2023-05-02T14:37:56.690Z,43.87
2023-05-02T14:40:24.400Z,43.86
2023-05-02T14:42:52.215Z,45.19
2023-05-02T14:45:20.212Z,44.48
2023-05-02T14:47:48.119Z,45.31
2023-05-02T14:50:16.115Z,44.88
2023-05-02T14:52:46.178Z,44.56
2023-05-02T14:55:15.248Z,45.97
2023-05-02T14:57:43.150Z,46.30
2023-05-02T15:00:11.826Z,47.71
2023-05-02T15:02:39.712Z,48.78
2023-05-02T15:05:12.451Z,46.41
2023-05-02T15:07:40.467Z,45.33
2023-05-02T15:10:09.289Z,46.76
2023-05-02T15:12:38.307Z,48.33
2023-05-02T15:15:06.855Z,47.92
2023-05-02T15:17:34.639Z,48.00
2023-05-02T15:20:02.432Z,46.53
2023-05-02T15:22:30.603Z,46.66
2023-05-02T15:24:58.300Z,46.01
2023-05-02T15:27:25.963Z,46.72
2023-05-02T15:29:54.998Z,46.23
2023-05-02T15:32:22.745Z,46.64
2023-05-02T15:34:50.581Z,48.43
2023-05-02T15:37:18.338Z,47.42
2023-05-02T15:39:46.104Z,47.61
2023-05-02T15:42:14.599Z,48.08
2023-05-02T15:44:42.753Z,47.03
2023-05-02T15:47:11.984Z,45.32
2023-05-02T15:49:40.136Z,45.28
2023-05-02T15:52:07.791Z,45.34
2023-05-02T15:54:35.493Z,45.19
2023-05-02T15:57:03.668Z,46.51
2023-05-02T15:59:31.317Z,45.32
2023-05-02T16:01:58.984Z,45.45
2023-05-02T16:04:29.052Z,44.97
2023-05-02T16:06:56.784Z,46.35
2023-05-02T16:09:24.584Z,43.61
2023-05-02T16:11:52.223Z,43.37
2023-05-02T16:14:23.807Z,44.10
2023-05-02T16:16:51.583Z,44.89
2023-05-02T16:19:19.209Z,45.25
2023-05-02T16:21:48.502Z,45.42
2023-05-02T16:24:16.261Z,44.82
2023-05-02T16:26:43.918Z,44.69
2023-05-02T16:29:11.557Z,46.83
2023-05-02T16:31:39.302Z,47.37
2023-05-02T16:34:07.066Z,47.34
2023-05-02T16:36:34.742Z,47.13
2023-05-02T16:39:03.808Z,46.42
2023-05-02T16:41:31.419Z,46.18
2023-05-02T16:43:59.081Z,45.46
2023-05-02T16:46:26.755Z,45.50
2023-05-02T16:48:54.534Z,46.50
2023-05-02T16:51:22.662Z,45.67
2023-05-02T16:53:50.351Z,45.59
2023-05-02T16:56:19.359Z,45.18
2023-05-02T16:58:47.032Z,44.75
2023-05-02T17:01:14.736Z,44.68
2023-05-02T17:03:42.572Z,45.53
2023-05-02T17:06:10.354Z,45.80
2023-05-02T17:08:38.125Z,45.29
2023-05-02T17:11:07.660Z,45.44
2023-05-02T17:13:36.753Z,45.25
2023-05-02T17:16:04.645Z,46.61
2023-05-02T17:18:34.214Z,47.07
2023-05-02T17:21:03.931Z,47.50
2023-05-02T17:23:31.997Z,47.80
2023-05-02T17:25:59.744Z,47.69
2023-05-02T17:28:27.464Z,48.99
2023-05-02T17:30:59.224Z,48.47
2023-05-02T17:33:27.482Z,48.76
2023-05-02T17:35:56.930Z,49.63
2023-05-02T17:38:24.709Z,49.79
2023-05-02T17:40:52.677Z,50.31
2023-05-02T17:43:45.310Z,49.96
2023-05-02T17:46:14.319Z,50.15
2023-05-02T17:48:44.056Z,50.47
2023-05-02T17:51:12.453Z,50.80
2023-05-02T17:53:40.448Z,51.56
2023-05-02T17:56:08.360Z,51.49
2023-05-02T17:58:37.373Z,51.83
2023-05-02T18:01:09.074Z,52.75
2023-05-02T18:03:39.500Z,52.37
2023-05-02T18:06:08.082Z,52.23
2023-05-02T18:08:36.175Z,52.50
2023-05-02T18:11:04.154Z,53.54
2023-05-02T18:13:32.301Z,53.62
2023-05-02T18:16:01.499Z,53.40
2023-05-02T18:18:29.554Z,53.19
2023-05-02T18:20:58.776Z,53.55
2023-05-02T18:23:26.628Z,53.37
2023-05-02T18:25:54.478Z,52.96
2023-05-02T18:28:22.646Z,53.29
2023-05-02T18:30:50.477Z,53.22
2023-05-02T18:33:18.211Z,52.45
2023-05-02T18:35:47.620Z,52.99
2023-05-02T18:38:17.530Z,53.40
2023-05-02T18:40:45.350Z,53.06
2023-05-02T18:43:13.235Z,53.52
2023-05-02T18:45:41.214Z,53.12
2023-05-02T18:48:09.074Z,52.99
2023-05-02T18:50:37.014Z,53.49
2023-05-02T18:53:05.060Z,53.67
2023-05-02T18:55:34.670Z,53.77
2023-05-02T18:58:02.470Z,54.67
2023-05-02T19:00:31.591Z,54.61
2023-05-02T19:02:59.887Z,54.69
2023-05-02T19:05:28.087Z,54.68
2023-05-02T19:07:56.113Z,55.56
2023-05-02T19:10:23.956Z,55.93
2023-05-02T19:12:52.959Z,56.43
2023-05-02T19:15:20.759Z,56.64
2023-05-02T19:17:48.582Z,56.70
2023-05-02T19:20:16.549Z,56.39
2023-05-02T19:22:46.103Z,57.21
2023-05-02T19:25:14.135Z,56.87
2023-05-02T19:27:42.291Z,57.71
2023-05-02T19:30:13.616Z,58.28
2023-05-02T19:32:41.484Z,58.12
2023-05-02T19:35:09.867Z,57.75
2023-05-02T19:37:37.588Z,58.05
2023-05-02T19:40:06.105Z,58.37
2023-05-02T19:42:33.847Z,58.47
2023-05-02T19:45:01.648Z,58.42
2023-05-02T19:47:32.574Z,58.60
2023-05-02T19:50:00.343Z,59.07
2023-05-02T19:52:28.220Z,59.07
2023-05-02T19:54:55.944Z,59.72
2023-05-02T19:57:23.843Z,59.48
2023-05-02T19:59:51.525Z,59.21
2023-05-02T20:02:19.334Z,59.31
2023-05-02T20:04:48.397Z,59.43
2023-05-02T20:07:16.070Z,59.58
2023-05-02T20:09:43.737Z,59.39
2023-05-02T20:12:11.464Z,59.30
2023-05-02T20:14:40.772Z,59.97
2023-05-02T20:17:08.854Z,59.48
2023-05-02T20:19:36.597Z,58.91
2023-05-02T20:22:05.647Z,59.34
2023-05-02T20:24:33.317Z,58.99
2023-05-02T20:27:01.306Z,59.24
2023-05-02T20:29:29.028Z,58.39
2023-05-02T20:31:56.797Z,59.20
2023-05-02T20:34:24.510Z,59.15
2023-05-02T20:36:52.536Z,58.20
2023-05-02T20:39:21.845Z,58.45
2023-05-02T20:41:50.006Z,57.86
2023-05-02T20:44:18.652Z,57.51
2023-05-02T20:46:46.389Z,58.14
2023-05-02T20:49:14.156Z,58.67
2023-05-02T20:51:41.945Z,57.43
2023-05-02T20:54:09.590Z,57.85
2023-05-02T20:56:38.626Z,57.95
2023-05-02T20:59:06.332Z,57.39
2023-05-02T21:01:34.350Z,57.84
2023-05-02T21:04:03.412Z,58.01
2023-05-02T21:06:31.416Z,58.09
2023-05-02T21:08:59.175Z,58.94
2023-05-02T21:11:26.874Z,57.98
2023-05-02T21:13:55.834Z,58.06
2023-05-02T21:16:23.817Z,57.97
2023-05-02T21:18:51.576Z,58.52
2023-05-02T21:21:19.496Z,58.81
2023-05-02T21:23:47.292Z,58.92
2023-05-02T21:26:14.940Z,59.27
2023-05-02T21:28:42.636Z,59.51
2023-05-02T21:31:11.895Z,61.20
2023-05-02T21:33:39.566Z,61.44
2023-05-02T21:36:07.705Z,61.28
2023-05-02T21:38:35.455Z,62.34
2023-05-02T21:41:04.308Z,62.26
2023-05-02T21:43:32.764Z,62.17
2023-05-02T21:46:01.015Z,62.12
2023-05-02T21:48:30.050Z,62.75
2023-05-02T21:50:57.658Z,63.10
2023-05-02T21:53:26.978Z,62.89
2023-05-02T21:55:54.615Z,63.54
2023-05-02T21:58:22.246Z,64.18
2023-05-02T22:00:50.056Z,63.99
2023-05-02T22:03:17.793Z,63.82
2023-05-02T22:05:49.761Z,64.01
2023-05-02T22:08:18.006Z,64.51
2023-05-02T22:10:45.959Z,64.76
2023-05-02T22:13:15.828Z,65.89
2023-05-02T22:15:45.309Z,64.38
2023-05-02T22:18:13.819Z,64.97
2023-05-02T22:20:41.933Z,65.63
2023-05-02T22:23:12.665Z,65.68
2023-05-02T22:25:42.344Z,65.10
2023-05-02T22:28:11.471Z,65.18
2023-05-02T22:30:39.769Z,65.31
2023-05-02T22:33:08.435Z,65.50
2023-05-02T22:35:37.296Z,65.88
2023-05-02T22:38:05.715Z,66.14
2023-05-02T22:40:34.700Z,65.36
2023-05-02T22:43:02.558Z,65.49
2023-05-02T22:45:30.484Z,65.76
2023-05-02T22:47:58.180Z,66.76
2023-05-02T22:50:26.468Z,66.44
2023-05-02T22:52:56.798Z,66.89
2023-05-02T22:55:24.863Z,66.68
2023-05-02T22:57:53.892Z,67.40
2023-05-02T23:00:22.494Z,66.16
2023-05-02T23:02:50.448Z,66.34
2023-05-02T23:05:18.222Z,67.15
2023-05-02T23:07:45.853Z,66.75
2023-05-02T23:10:13.482Z,67.79
2023-05-02T23:12:41.840Z,66.84
2023-05-02T23:15:11.892Z,67.15
2023-05-02T23:17:41.286Z,65.71
2023-05-02T23:20:11.281Z,66.28
2023-05-02T23:22:45.312Z,66.15
2023-05-02T23:25:13.970Z,66.23
2023-05-02T23:27:41.585Z,66.26
2023-05-02T23:30:11.467Z,66.92
2023-05-02T23:32:39.659Z,65.94
2023-05-02T23:35:08.475Z,65.92
2023-05-02T23:37:36.113Z,65.93
2023-05-02T23:40:04.194Z,66.10
2023-05-02T23:42:34.218Z,66.04
2023-05-02T23:45:01.917Z,66.18
2023-05-02T23:47:30.943Z,66.06
2023-05-02T23:49:58.686Z,66.15
2023-05-02T23:52:26.765Z,66.24
2023-05-02T23:54:54.658Z,67.64
2023-05-02T23:57:22.307Z,66.68
2023-05-02T23:59:50.052Z,66.84
